Suisun City, California
Current Conditions -  °F | °C
As of 4:58 PM on Friday 24 Oct 2014 (Local Time) from KSUU Reporting Station
Clear Clear  
Wind Chill: 71°   Ceiling: Unl
Heat Index: 71°   Visibility: 10mi
Dew Point: 54°   Wind: 15mph
Humidity: 55%   Direction: 240°WSW
Pressure: 29.85"   Gusts: NA
Location:  38.24°N, 122.03°W
Report Text: KSUU 242358Z AUTO 24013KT 10SM CLR 22/12 A2985 RMK AO2 SLP115 T02180123 10257 20191 56012 $
Loading
Personal Weather Stations






























Interactive Weather Map
Tropical Storm Tracking
New forecast layout! Learn more

10-Day Weather Forecast

Advertisements
Track Severe Weather on mobile